EGOP

Pembrey Sands Airport

Pembrey Sands, United Kingdom
METAR EGOP 190450Z AUTO 25006KT 4600 // FEW025/// 08/06 Q1001
Observed Flight Rules
Dec-19 @ 04:50 UTC (38 minutes ago) Instrument Flight Rules
Wind Visibility Clouds
250° at 6 knots 4,603 meters
  • Few at 2,500' AGL
Temperatures Readings
Current 8°C / 46°F
Dewpoint 6°C / 43°F
Humidity 87%
Altimeter 29.56" Hg
Pressure 1001 hPa
Elevation 6
METAR EGOP 190450Z AUTO 25006KT 4600 // FEW025/// 08/06 Q1001
Observed Flight Rules
Dec-19 @ 04:50 UTC
(38 minutes ago)
IFR
Wind Visibility
250° at 6 knots 4,603 meters
Clouds
  • Few at 2,500' AGL
Temperature Dewpoint
8°C / 46°F 6°C / 43°F
Humidity Altimeter Pressure
87% 29.56" Hg 1001 hPa